createdAt,value
2023-05-01T00:00:40.833Z,125.80
2023-05-01T00:05:40.150Z,111.00
2023-05-01T00:10:39.399Z,102.60
2023-05-01T00:15:38.652Z,100.10
2023-05-01T00:20:37.924Z,137.90
2023-05-01T00:25:37.201Z,88.90
2023-05-01T00:30:36.466Z,82.80
2023-05-01T00:35:35.761Z,66.60
2023-05-01T00:40:36.024Z,62.30
2023-05-01T00:45:34.325Z,62.20
2023-05-01T00:50:34.569Z,54.80
2023-05-01T00:55:32.826Z,51.30
2023-05-01T01:00:31.124Z,54.70
2023-05-01T01:05:32.430Z,49.50
2023-05-01T01:10:31.681Z,48.60
2023-05-01T01:15:30.956Z,44.00
2023-05-01T01:20:30.258Z,47.50
2023-05-01T01:25:28.503Z,40.20
2023-05-01T01:30:28.782Z,36.70
2023-05-01T01:35:27.051Z,37.50
2023-05-01T01:40:26.325Z,36.60
2023-05-01T01:45:26.577Z,31.90
2023-05-01T01:50:24.844Z,30.40
2023-05-01T01:55:26.096Z,28.70
2023-05-01T02:00:23.348Z,29.00
2023-05-01T02:05:23.584Z,28.60
2023-05-01T02:10:23.836Z,25.70
2023-05-01T02:15:21.098Z,24.80
2023-05-01T02:20:21.354Z,20.70
2023-05-01T02:25:20.608Z,21.10
2023-05-01T02:30:19.907Z,20.40
2023-05-01T02:35:19.204Z,18.90
2023-05-01T02:40:17.467Z,19.40
2023-05-01T02:45:16.764Z,17.70
2023-05-01T02:50:16.052Z,17.30
2023-05-01T02:55:16.509Z,17.40
2023-05-01T03:00:15.583Z,14.50
2023-05-01T03:05:14.848Z,15.10
2023-05-01T03:10:14.099Z,13.40
2023-05-01T03:15:13.402Z,12.30
2023-05-01T03:20:11.659Z,13.20
2023-05-01T03:25:10.923Z,11.80
2023-05-01T03:30:11.202Z,11.40
2023-05-01T03:35:09.550Z,13.10
2023-05-01T03:40:08.744Z,10.40
2023-05-01T03:45:10.109Z,11.00
2023-05-01T03:50:07.324Z,10.40
2023-05-01T03:55:07.592Z,9.80
2023-05-01T04:00:06.873Z,8.90
2023-05-01T04:05:05.159Z,9.10
2023-05-01T04:10:05.432Z,9.80
2023-05-01T04:15:03.673Z,8.50
2023-05-01T04:20:02.923Z,8.10
2023-05-01T04:25:03.201Z,8.40
2023-05-01T04:30:01.511Z,7.40
2023-05-01T04:35:01.785Z,8.10
2023-05-01T04:40:01.022Z,8.00
2023-05-01T04:44:59.273Z,7.30
2023-05-01T04:49:57.837Z,7.90
2023-05-01T04:54:57.977Z,7.60
2023-05-01T04:59:58.485Z,7.00
2023-05-01T05:04:58.206Z,6.80
2023-05-01T05:09:56.650Z,7.60
2023-05-01T05:14:53.698Z,6.90
2023-05-01T05:19:55.331Z,6.60
2023-05-01T05:24:53.247Z,7.80
2023-05-01T05:29:53.641Z,6.80
2023-05-01T05:34:51.821Z,6.60
2023-05-01T05:39:50.905Z,6.10
2023-05-01T05:44:52.268Z,7.10
2023-05-01T05:49:49.342Z,6.30
2023-05-01T05:54:49.627Z,6.30
2023-05-01T05:59:48.924Z,6.60
2023-05-01T06:04:47.235Z,6.30
2023-05-01T06:09:46.510Z,6.80
2023-05-01T06:14:45.789Z,6.50
2023-05-01T06:19:46.088Z,5.80
2023-05-01T06:24:45.391Z,6.00
2023-05-01T06:29:44.659Z,6.00
2023-05-01T06:34:42.948Z,7.10
2023-05-01T06:39:42.227Z,6.80
2023-05-01T06:44:41.520Z,6.60
2023-05-01T06:49:40.811Z,6.30
2023-05-01T06:54:40.116Z,6.30
2023-05-01T06:59:40.435Z,6.30
2023-05-01T07:04:39.727Z,5.80
2023-05-01T07:09:38.017Z,6.50
2023-05-01T07:14:37.383Z,6.40
2023-05-01T07:19:36.447Z,8.40
2023-05-01T07:24:35.718Z,8.00
2023-05-01T07:29:35.006Z,6.70
2023-05-01T07:34:34.265Z,7.30
2023-05-01T07:39:33.563Z,7.30
2023-05-01T07:44:32.840Z,6.30
2023-05-01T07:49:32.097Z,6.60
2023-05-01T07:54:31.328Z,7.20
2023-05-01T07:59:29.603Z,6.60
2023-05-01T08:04:29.912Z,6.60
2023-05-01T08:09:30.217Z,6.80
2023-05-01T08:14:28.518Z,6.00
2023-05-01T08:19:27.806Z,6.50
2023-05-01T08:24:27.080Z,6.30
2023-05-01T08:29:26.390Z,5.40
2023-05-01T08:34:25.678Z,5.80
2023-05-01T08:39:24.991Z,6.20
2023-05-01T08:44:24.266Z,6.30
2023-05-01T08:49:25.561Z,5.90
2023-05-01T08:54:22.839Z,6.20
2023-05-01T08:59:23.113Z,6.50
2023-05-01T09:04:21.446Z,5.40
2023-05-01T09:09:21.528Z,5.30
2023-05-01T09:14:19.763Z,5.80
2023-05-01T09:19:20.038Z,5.40
2023-05-01T09:24:20.316Z,5.60
2023-05-01T09:29:17.583Z,26.40
2023-05-01T09:34:17.846Z,166.10
2023-05-01T09:39:17.143Z,145.70
2023-05-01T09:44:15.426Z,59.30
2023-05-01T09:49:16.720Z,132.30
2023-05-01T09:54:14.030Z,166.00
2023-05-01T09:59:14.342Z,139.80
2023-05-01T10:04:13.670Z,345.40
2023-05-01T10:09:11.970Z,108.10
2023-05-01T10:14:12.293Z,176.80
2023-05-01T10:19:10.620Z,136.30
2023-05-01T10:24:09.900Z,165.30
2023-05-01T10:29:10.195Z,103.40
2023-05-01T10:34:08.462Z,199.20
2023-05-01T10:39:09.778Z,91.30
2023-05-01T10:44:07.027Z,65.20
2023-05-01T10:49:06.301Z,71.00
2023-05-01T10:54:05.597Z,64.10
2023-05-01T10:59:04.950Z,71.20
2023-05-01T11:04:06.005Z,58.40
2023-05-01T11:09:04.237Z,32.90
2023-05-01T11:14:02.499Z,18.60
2023-05-01T11:19:01.725Z,15.90
2023-05-01T11:24:00.982Z,10.10
2023-05-01T11:29:00.216Z,87.80
2023-05-01T11:33:59.444Z,85.30
2023-05-01T11:38:58.688Z,56.50
2023-05-01T11:43:58.968Z,54.60
2023-05-01T11:48:57.238Z,79.70
2023-05-01T11:53:55.534Z,140.60
2023-05-01T11:58:55.808Z,79.60
2023-05-01T12:03:56.196Z,100.10
2023-05-01T12:08:54.289Z,120.00
2023-05-01T12:13:54.567Z,290.60
2023-05-01T12:18:52.893Z,115.50
2023-05-01T12:23:53.090Z,240.10
2023-05-01T12:28:51.252Z,155.20
2023-05-01T12:33:50.405Z,159.00
2023-05-01T12:38:50.540Z,94.00
2023-05-01T12:43:48.876Z,43.70
2023-05-01T12:48:50.953Z,69.50
2023-05-01T12:53:47.320Z,40.20
2023-05-01T12:58:47.493Z,25.50
2023-05-01T13:03:45.669Z,37.20
2023-05-01T13:08:44.829Z,27.20
2023-05-01T13:13:43.989Z,45.20
2023-05-01T13:18:43.160Z,16.70
2023-05-01T13:23:44.308Z,13.70
2023-05-01T13:28:42.702Z,17.00
2023-05-01T13:33:39.844Z,10.60
2023-05-01T13:38:40.068Z,9.50
2023-05-01T13:43:40.220Z,7.60
2023-05-01T13:48:39.384Z,7.90
2023-05-01T13:53:37.529Z,37.60
2023-05-01T13:58:36.688Z,84.20
2023-05-01T14:03:37.037Z,67.60
2023-05-01T14:08:37.041Z,44.60
2023-05-01T14:13:34.177Z,48.10
2023-05-01T14:18:33.331Z,80.70
2023-05-01T14:23:32.471Z,208.20
2023-05-01T14:28:31.820Z,110.90
2023-05-01T14:33:30.970Z,62.70
2023-05-01T14:38:32.118Z,48.80
2023-05-01T14:43:30.453Z,38.60
2023-05-01T22:32:41.157Z,34.10
2023-05-01T22:37:39.413Z,32.30
2023-05-01T22:42:39.697Z,84.70
2023-05-01T22:47:39.009Z,15.60
2023-05-01T22:52:37.236Z,26.40
2023-05-01T22:57:37.495Z,59.10
2023-05-01T23:02:35.822Z,78.20
2023-05-01T23:07:36.061Z,50.70
2023-05-01T23:12:34.343Z,68.80
2023-05-01T23:17:33.647Z,50.30
2023-05-01T23:22:34.907Z,42.90
2023-05-01T23:27:34.167Z,40.10
2023-05-01T23:32:33.415Z,39.20
2023-05-01T23:37:30.655Z,34.60
2023-05-01T23:42:29.902Z,33.10
2023-05-01T23:47:29.196Z,28.30
2023-05-01T23:52:28.438Z,27.70
2023-05-01T23:57:27.703Z,25.60
